Time;durP1;ratioP1;P1;durP2;ratioP2;P2;SDS_P1;SDS_P2;PMS_P1;PMS_P2;Temp;Humidity;BMP_temperature;BMP_pressure;BME280_temperature;BME280_humidity;BME280_pressure;Samples;Min_cycle;Max_cycle;Signal;HPM_P1;HPM_P2
2022/10/25 00:00:38;;;;;;;25.90;8.07;;;;;;;13.17;64.02;94395.78;5063017;28;20215;-74
2022/10/25 00:03:10;;;;;;;26.30;7.20;;;;;;;13.19;64.16;94398.94;5062216;28;20021;-75
2022/10/25 00:05:38;;;;;;;24.52;7.15;;;;;;;13.13;64.39;94400.19;5062462;28;20025;-75
2022/10/25 00:08:04;;;;;;;20.30;6.07;;;;;;;13.10;64.67;94401.59;5062532;28;20270;-74
2022/10/25 00:10:29;;;;;;;18.92;5.38;;;;;;;13.11;64.64;94407.72;5062730;28;20021;-74
2022/10/25 00:12:55;;;;;;;28.67;5.78;;;;;;;13.12;64.34;94410.09;5062712;28;20017;-75
2022/10/25 00:15:20;;;;;;;23.55;5.75;;;;;;;13.13;64.50;94413.59;5062713;28;20091;-75
2022/10/25 00:17:46;;;;;;;24.05;5.95;;;;;;;13.11;64.58;94405.88;5062743;28;20274;-74
2022/10/25 00:20:12;;;;;;;17.85;6.93;;;;;;;13.08;64.50;94409.16;5062800;28;20088;-74
2022/10/25 00:22:37;;;;;;;23.15;7.45;;;;;;;13.10;64.88;94406.94;5062406;28;20017;-74
2022/10/25 00:25:05;;;;;;;19.58;5.85;;;;;;;13.16;64.92;94405.69;5062608;28;20434;-74
2022/10/25 00:27:30;;;;;;;23.17;5.78;;;;;;;13.20;64.95;94405.84;5062524;28;20096;-74
2022/10/25 00:29:56;;;;;;;22.80;5.25;;;;;;;13.15;65.25;94411.38;5062429;28;20345;-74
2022/10/25 00:32:21;;;;;;;34.45;11.98;;;;;;;13.14;65.08;94409.78;5062581;28;20013;-74
2022/10/25 00:34:47;;;;;;;39.05;10.40;;;;;;;13.13;65.15;94411.69;5062202;28;20021;-74
2022/10/25 00:37:12;;;;;;;23.38;6.68;;;;;;;13.16;65.06;94416.41;5062504;28;20025;-74
2022/10/25 00:39:37;;;;;;;30.00;7.18;;;;;;;13.21;64.67;94415.47;5062294;28;20089;-74
2022/10/25 00:42:03;;;;;;;24.98;6.10;;;;;;;13.18;64.47;94411.50;5062433;28;20076;-75
2022/10/25 00:44:35;;;;;;;16.25;5.88;;;;;;;13.22;64.52;94409.00;5062480;28;20303;-75
2022/10/25 00:47:03;;;;;;;20.90;5.05;;;;;;;13.22;64.43;94396.41;5062229;28;20025;-74
2022/10/25 00:49:31;;;;;;;21.77;5.35;;;;;;;13.17;64.72;94398.47;5062487;28;20033;-74
2022/10/25 00:52:01;;;;;;;28.17;5.95;;;;;;;13.15;64.80;94393.44;5044495;28;20056;-74
2022/10/25 00:54:34;;;;;;;19.77;5.40;;;;;;;13.13;65.06;94384.94;5062228;28;20025;-75
2022/10/25 00:57:07;;;;;;;23.45;6.97;;;;;;;13.09;65.11;94393.88;5062328;28;20066;-75
2022/10/25 00:59:33;;;;;;;18.00;5.78;;;;;;;13.09;65.02;94388.53;5062135;28;20047;-75
2022/10/25 01:01:59;;;;;;;18.33;5.28;;;;;;;13.07;65.38;94380.84;5062134;28;20025;-75
2022/10/25 01:04:27;;;;;;;32.03;8.05;;;;;;;13.02;65.50;94387.09;5062285;28;20047;-74
2022/10/25 01:06:53;;;;;;;18.13;5.57;;;;;;;12.97;65.56;94387.28;5062107;28;20094;-74
2022/10/25 01:09:25;;;;;;;30.83;6.57;;;;;;;12.96;65.54;94380.34;5062033;28;20021;-74
2022/10/25 01:11:51;;;;;;;21.98;6.40;;;;;;;12.99;65.27;94385.06;5062074;28;20051;-74
2022/10/25 01:14:17;;;;;;;19.48;6.55;;;;;;;12.95;65.41;94378.78;5064773;28;20297;-74
2022/10/25 01:16:45;;;;;;;20.00;6.60;;;;;;;12.97;65.57;94387.28;5066009;28;20049;-74
2022/10/25 01:19:11;;;;;;;25.55;6.95;;;;;;;12.98;65.42;94388.84;5064644;28;20029;-74
2022/10/25 01:22:02;;;;;;;35.92;7.07;;;;;;;12.94;65.51;94373.75;5065250;28;20047;-74
2022/10/25 01:24:46;;;;;;;19.42;5.57;;;;;;;12.88;65.85;94383.81;5052265;28;20033;-75
2022/10/25 01:27:46;;;;;;;22.70;6.18;;;;;;;12.82;65.99;94379.72;5065691;28;20275;-74
2022/10/25 01:30:23;;;;;;;24.23;7.03;;;;;;;12.77;66.35;94382.56;5065085;28;20032;-74
2022/10/25 01:33:16;;;;;;;23.30;6.63;;;;;;;12.72;66.59;94378.16;5065622;28;20024;-74
2022/10/25 01:35:52;;;;;;;21.33;6.57;;;;;;;12.75;66.69;94374.84;5065500;28;20071;-75
2022/10/25 01:39:03;;;;;;;24.85;6.97;;;;;;;12.72;66.90;94380.03;5065311;28;20075;-75
2022/10/25 01:41:43;;;;;;;27.77;7.70;;;;;;;12.57;67.20;94376.69;5027096;28;20266;-75
2022/10/25 01:44:31;;;;;;;24.40;8.60;;;;;;;12.59;67.41;94379.84;5065487;28;20017;-75
2022/10/25 01:47:04;;;;;;;23.40;7.15;;;;;;;12.56;67.36;94377.81;5065182;28;20311;-75
2022/10/25 01:49:43;;;;;;;23.92;7.13;;;;;;;12.57;67.22;94368.69;5065176;28;20025;-75
2022/10/25 01:52:08;;;;;;;36.95;7.95;;;;;;;12.57;67.31;94371.34;5065218;28;20089;-75
2022/10/25 01:54:34;;;;;;;28.80;6.80;;;;;;;12.57;67.42;94373.25;5065002;28;20036;-75
2022/10/25 01:57:20;;;;;;;31.20;7.15;;;;;;;12.53;67.33;94359.72;5064972;28;20043;-75
2022/10/25 02:00:16;;;;;;;24.10;6.97;;;;;;;12.51;67.51;94369.16;5064923;28;20044;-75
2022/10/25 02:03:01;;;;;;;28.17;7.78;;;;;;;12.50;67.43;94360.34;5064935;28;20035;-75
2022/10/25 02:05:31;;;;;;;18.58;5.85;;;;;;;12.45;67.32;94355.13;5063784;28;20051;-75
2022/10/25 02:08:38;;;;;;;27.23;7.97;;;;;;;12.45;67.43;94365.81;5064760;28;20024;-75
2022/10/25 02:11:18;;;;;;;23.17;6.15;;;;;;;12.41;67.51;94367.53;5064722;28;20093;-75
2022/10/25 02:14:11;;;;;;;25.05;5.88;;;;;;;12.38;67.65;94368.97;5064835;28;20115;-75
2022/10/25 02:16:43;;;;;;;26.67;5.75;;;;;;;12.33;67.69;94371.78;5064752;28;20035;-76
2022/10/25 02:19:12;;;;;;;25.52;6.35;;;;;;;12.35;67.57;94366.13;5064922;28;20020;-75
2022/10/25 02:21:40;;;;;;;25.38;6.57;;;;;;;12.30;67.81;94361.72;5064617;28;20201;-75
2022/10/25 02:24:20;;;;;;;27.05;8.05;;;;;;;12.21;68.08;94367.03;5064605;28;20025;-75
2022/10/25 02:26:49;;;;;;;20.45;5.65;;;;;;;12.21;68.30;94360.91;5064600;28;20044;-75
2022/10/25 02:29:17;;;;;;;25.20;7.95;;;;;;;12.19;68.10;94357.75;5064301;28;20330;-75
2022/10/25 02:31:43;;;;;;;23.00;7.28;;;;;;;12.16;68.34;94351.16;5064802;28;20052;-75
2022/10/25 02:34:09;;;;;;;22.88;7.30;;;;;;;12.17;68.41;94352.72;5064747;28;20066;-75
2022/10/25 02:36:35;;;;;;;23.05;6.13;;;;;;;12.18;68.52;94362.31;5064108;28;20273;-75
2022/10/25 02:39:01;;;;;;;24.52;6.68;;;;;;;12.15;68.43;94356.78;5064270;28;20031;-75
2022/10/25 02:41:27;;;;;;;24.63;6.45;;;;;;;12.11;68.55;94343.28;5064267;28;20021;-75
2022/10/25 02:43:52;;;;;;;30.25;7.82;;;;;;;12.10;68.59;94346.25;5064225;28;20074;-75
2022/10/25 02:46:20;;;;;;;23.42;9.27;;;;;;;12.11;68.80;94345.16;5064383;28;20210;-75
2022/10/25 02:48:46;;;;;;;32.83;8.27;;;;;;;12.10;68.80;94355.06;5062978;28;20021;-75
2022/10/25 02:51:13;;;;;;;20.92;6.63;;;;;;;12.07;69.05;94355.69;5064236;28;20067;-75
2022/10/25 02:53:38;;;;;;;18.10;5.78;;;;;;;12.02;69.17;94358.50;5064216;28;20017;-75
2022/10/25 02:56:09;;;;;;;28.25;6.30;;;;;;;12.01;69.01;94365.72;5064017;28;20017;-75
2022/10/25 02:58:37;;;;;;;31.92;6.28;;;;;;;12.01;69.14;94351.59;5063844;28;20023;-75
2022/10/25 03:01:03;;;;;;;32.95;8.32;;;;;;;11.98;69.27;94360.22;5063834;28;20021;-75
2022/10/25 03:03:29;;;;;;;31.73;7.20;;;;;;;11.96;69.33;94359.72;5063843;28;20313;-75
2022/10/25 03:05:55;;;;;;;33.47;6.68;;;;;;;11.95;69.32;94364.28;5063794;28;20023;-75
2022/10/25 03:08:21;;;;;;;23.42;7.05;;;;;;;11.93;69.47;94352.34;5063539;28;20020;-75
2022/10/25 03:10:47;;;;;;;35.15;7.20;;;;;;;11.94;69.31;94351.22;5063816;28;20040;-75
2022/10/25 03:13:12;;;;;;;29.63;7.93;;;;;;;11.93;69.05;94347.78;5063926;28;20092;-75
2022/10/25 03:15:38;;;;;;;26.90;5.80;;;;;;;11.88;69.08;94339.88;5063432;28;20196;-75
2022/10/25 03:18:03;;;;;;;20.48;6.82;;;;;;;11.83;69.49;94340.78;5063560;28;20048;-75
2022/10/25 03:20:28;;;;;;;19.23;6.18;;;;;;;11.83;69.67;94335.47;5063439;28;20063;-75
2022/10/25 03:22:54;;;;;;;18.45;6.68;;;;;;;11.82;69.53;94328.56;5063489;28;20024;-75
2022/10/25 03:25:19;;;;;;;33.65;6.45;;;;;;;11.80;69.52;94330.72;5063465;28;20025;-75
2022/10/25 03:27:45;;;;;;;23.60;6.78;;;;;;;11.75;69.64;94338.88;5063329;28;20071;-75
2022/10/25 03:30:12;;;;;;;31.58;11.00;;;;;;;11.75;69.70;94346.91;5063443;28;20056;-75
2022/10/25 03:32:38;;;;;;;27.27;8.27;;;;;;;11.71;69.83;94343.25;5063370;28;20029;-75
2022/10/25 03:35:04;;;;;;;24.20;6.47;;;;;;;11.69;70.03;94350.78;5063095;28;20098;-75
2022/10/25 03:37:29;;;;;;;19.83;7.00;;;;;;;11.65;70.14;94360.50;5062561;28;20071;-75
2022/10/25 03:39:55;;;;;;;25.38;6.55;;;;;;;11.67;70.10;94355.66;5063079;28;20036;-75
2022/10/25 03:42:20;;;;;;;29.75;6.70;;;;;;;11.63;70.03;94360.81;5063181;28;20074;-75
2022/10/25 03:44:46;;;;;;;20.15;7.00;;;;;;;11.59;70.33;94364.41;5063209;28;20052;-75
2022/10/25 03:47:11;;;;;;;19.27;6.55;;;;;;;11.56;70.37;94355.16;5063049;28;20052;-75
2022/10/25 03:49:37;;;;;;;18.55;7.35;;;;;;;11.54;70.47;94349.31;5063099;28;20025;-74
2022/10/25 03:52:04;;;;;;;29.77;6.68;;;;;;;11.48;70.70;94349.72;5063016;28;20021;-75
2022/10/25 03:54:30;;;;;;;26.02;6.78;;;;;;;11.43;70.87;94343.44;5062804;28;20096;-75
2022/10/25 03:56:56;;;;;;;25.85;7.15;;;;;;;11.47;70.53;94342.84;5062928;28;20025;-74
2022/10/25 03:59:21;;;;;;;27.00;8.25;;;;;;;11.47;70.55;94340.16;5062981;28;20032;-74
2022/10/25 04:01:46;;;;;;;25.15;6.45;;;;;;;11.41;70.58;94339.50;5062815;28;20052;-75
2022/10/25 04:04:12;;;;;;;21.20;5.47;;;;;;;11.42;70.72;94343.75;5062756;28;20096;-75
2022/10/25 04:06:37;;;;;;;35.17;7.07;;;;;;;11.39;70.75;94336.34;5062690;28;20056;-75
2022/10/25 04:09:03;;;;;;;26.40;6.70;;;;;;;11.39;70.69;94344.38;5062854;28;20032;-75
2022/10/25 04:11:28;;;;;;;31.38;8.57;;;;;;;11.36;70.98;94342.31;5062679;28;20021;-75
2022/10/25 04:13:54;;;;;;;28.23;6.72;;;;;;;11.38;71.71;94340.91;5062672;28;20024;-75
2022/10/25 04:16:19;;;;;;;24.50;7.40;;;;;;;11.38;71.53;94330.25;5062495;28;20230;-75
2022/10/25 04:18:44;;;;;;;31.58;8.20;;;;;;;11.36;71.29;94337.75;5062073;28;20029;-75
2022/10/25 04:21:10;;;;;;;24.40;7.25;;;;;;;11.35;71.36;94332.72;5062577;28;20033;-76
2022/10/25 04:23:36;;;;;;;26.42;7.45;;;;;;;11.36;71.50;94336.97;5062620;28;20029;-75
2022/10/25 04:26:01;;;;;;;28.83;7.82;;;;;;;11.29;71.62;94339.28;5062579;28;20265;-75
2022/10/25 04:28:26;;;;;;;27.08;7.93;;;;;;;11.27;71.58;94326.22;5062374;28;20036;-75
2022/10/25 04:30:52;;;;;;;25.33;7.28;;;;;;;11.26;71.65;94327.34;5062493;28;20077;-75
2022/10/25 04:33:17;;;;;;;29.55;8.20;;;;;;;11.25;71.71;94336.44;5062339;28;20029;-75
2022/10/25 04:35:43;;;;;;;28.60;7.57;;;;;;;11.28;71.89;94332.38;5062405;28;20063;-76
2022/10/25 04:38:10;;;;;;;21.45;6.65;;;;;;;11.28;71.66;94346.50;5062431;28;20387;-75
2022/10/25 04:40:35;;;;;;;26.95;7.88;;;;;;;11.28;71.71;94345.72;5062187;28;20311;-75
2022/10/25 04:43:01;;;;;;;29.33;6.65;;;;;;;11.25;71.50;94349.78;5062117;28;20033;-75
2022/10/25 04:45:28;;;;;;;25.50;7.63;;;;;;;11.18;71.85;94352.09;5062303;28;20342;-75
2022/10/25 04:47:53;;;;;;;22.48;7.05;;;;;;;11.14;72.09;94356.47;5062713;28;20083;-75
2022/10/25 04:50:19;;;;;;;31.48;7.88;;;;;;;11.16;72.28;94365.72;5066053;28;20032;-75
2022/10/25 04:52:44;;;;;;;33.20;7.28;;;;;;;11.22;72.48;94353.84;5066082;28;20211;-75
2022/10/25 04:55:10;;;;;;;21.02;7.38;;;;;;;11.19;72.06;94354.47;5066242;28;20031;-75
2022/10/25 04:57:35;;;;;;;34.92;7.07;;;;;;;11.18;72.38;94352.88;5065879;28;20025;-75
2022/10/25 05:00:01;;;;;;;29.80;7.45;;;;;;;11.19;72.39;94354.47;5065936;28;20025;-75
2022/10/25 05:02:27;;;;;;;35.13;8.38;;;;;;;11.23;72.22;94349.28;5065704;28;20036;-75
2022/10/25 05:04:52;;;;;;;34.45;8.05;;;;;;;11.26;72.14;94354.03;5065867;28;20025;-75
2022/10/25 05:07:18;;;;;;;25.23;7.45;;;;;;;11.29;71.93;94355.28;5065625;28;20032;-75
2022/10/25 05:09:44;;;;;;;37.33;8.13;;;;;;;11.29;71.68;94365.97;5065694;28;20028;-75
2022/10/25 05:12:09;;;;;;;27.38;8.68;;;;;;;11.28;71.60;94356.41;5065916;28;20206;-75
2022/10/25 05:14:35;;;;;;;55.25;8.75;;;;;;;11.28;71.70;94351.84;5065495;28;20361;-75
2022/10/25 05:17:00;;;;;;;32.78;9.38;;;;;;;11.30;71.64;94349.66;5065467;28;20033;-75
2022/10/25 05:19:26;;;;;;;23.23;8.35;;;;;;;11.27;71.71;94358.25;5065428;28;20284;-75
2022/10/25 05:21:51;;;;;;;29.73;8.68;;;;;;;11.26;71.87;94361.25;5065428;28;20088;-75
2022/10/25 05:24:17;;;;;;;33.40;10.75;;;;;;;11.27;71.92;94363.59;5065438;28;20029;-75
2022/10/25 05:26:42;;;;;;;33.45;9.45;;;;;;;11.31;71.80;94353.88;5065843;28;20024;-75
2022/10/25 05:29:10;;;;;;;25.55;9.27;;;;;;;11.29;71.88;94364.06;5065186;28;20028;-74
2022/10/25 05:31:38;;;;;;;41.50;9.50;;;;;;;11.35;71.71;94373.53;5065080;28;20219;-74
2022/10/25 05:34:04;;;;;;;30.75;8.95;;;;;;;11.40;71.54;94364.63;5065316;28;20052;-74
2022/10/25 05:36:31;;;;;;;35.63;9.05;;;;;;;11.42;71.65;94367.78;5064993;28;20040;-74
2022/10/25 05:38:57;;;;;;;48.58;11.80;;;;;;;11.47;71.79;94372.97;5064969;28;20224;-74
2022/10/25 05:41:22;;;;;;;41.28;11.90;;;;;;;11.53;71.74;94374.44;5064937;28;20044;-74
2022/10/25 05:43:48;;;;;;;46.17;9.93;;;;;;;11.56;71.57;94383.69;5065034;28;20099;-74
2022/10/25 05:46:19;;;;;;;35.90;10.63;;;;;;;11.57;72.05;94391.41;5064837;28;20017;-73
2022/10/25 05:48:45;;;;;;;29.75;10.10;;;;;;;11.56;72.23;94400.53;5064708;28;20029;-74
2022/10/25 05:51:16;;;;;;;46.20;9.00;;;;;;;11.60;72.14;94396.16;5065055;28;20318;-75
2022/10/25 05:53:46;;;;;;;33.72;9.82;;;;;;;11.67;72.09;94408.28;5064867;28;20247;-75
2022/10/25 05:56:12;;;;;;;32.17;9.57;;;;;;;11.75;72.06;94413.66;5065015;28;20021;-74
2022/10/25 05:58:38;;;;;;;41.15;9.13;;;;;;;11.81;71.92;94417.78;5064959;28;20017;-74
2022/10/25 06:01:03;;;;;;;35.50;8.60;;;;;;;11.89;71.89;94418.94;5063625;28;20056;-74
2022/10/25 06:03:29;;;;;;;29.20;9.48;;;;;;;12.00;71.45;94420.25;5064788;28;20021;-75
2022/10/25 06:05:59;;;;;;;33.85;8.45;;;;;;;12.13;71.19;94423.94;5064620;28;20013;-75
2022/10/25 06:08:24;;;;;;;32.83;8.85;;;;;;;12.23;70.93;94417.50;5064472;28;20047;-76
2022/10/25 06:10:50;;;;;;;32.75;9.38;;;;;;;12.32;70.10;94422.88;5064696;28;20355;-75
2022/10/25 06:13:15;;;;;;;45.20;11.13;;;;;;;12.40;69.71;94416.78;5064413;28;20028;-75
2022/10/25 06:15:41;;;;;;;35.78;9.30;;;;;;;12.50;69.15;94424.50;5064715;28;20033;-75
2022/10/25 06:18:06;;;;;;;34.90;9.52;;;;;;;12.55;69.01;94432.38;5064385;28;20238;-75
2022/10/25 06:20:31;;;;;;;45.72;10.57;;;;;;;12.67;69.00;94428.31;5064279;28;20024;-75
2022/10/25 06:22:57;;;;;;;41.53;8.65;;;;;;;12.74;69.46;94428.63;5064438;28;20021;-75
2022/10/25 06:25:22;;;;;;;45.65;9.70;;;;;;;12.76;69.66;94435.28;5064333;28;20067;-75
2022/10/25 06:27:47;;;;;;;38.60;9.23;;;;;;;12.86;69.40;94431.47;5064051;28;20263;-76
2022/10/25 06:30:13;;;;;;;42.78;10.38;;;;;;;12.96;68.56;94425.06;5064425;28;20029;-76
2022/10/25 06:32:38;;;;;;;48.50;10.48;;;;;;;13.04;67.92;94425.03;5064234;28;20342;-76
2022/10/25 06:35:04;;;;;;;30.73;9.95;;;;;;;13.19;68.10;94426.47;5063906;28;20048;-76
2022/10/25 06:37:30;;;;;;;42.13;10.73;;;;;;;13.25;68.21;94422.53;5063845;28;20249;-76
2022/10/25 06:39:55;;;;;;;39.15;10.40;;;;;;;13.39;68.06;94418.94;5064129;28;20062;-76
2022/10/25 06:42:21;;;;;;;41.42;9.68;;;;;;;13.52;67.69;94414.53;5063970;28;20039;-76
2022/10/25 06:44:46;;;;;;;36.72;8.57;;;;;;;13.62;67.07;94417.66;5063684;28;20263;-76
2022/10/25 06:47:11;;;;;;;27.25;9.07;;;;;;;13.76;66.96;94420.16;5063703;28;20065;-76
2022/10/25 06:49:37;;;;;;;28.23;7.78;;;;;;;13.89;66.88;94422.94;5064040;28;20029;-78
2022/10/25 06:52:02;;;;;;;29.20;7.50;;;;;;;14.03;66.68;94431.56;5064004;28;20688;-78
2022/10/25 06:54:28;;;;;;;37.25;9.70;;;;;;;14.16;66.06;94430.56;5064041;28;20032;-79
2022/10/25 06:56:53;;;;;;;45.17;12.30;;;;;;;14.31;65.61;94426.59;5063893;28;20311;-78
2022/10/25 06:59:19;;;;;;;33.92;9.18;;;;;;;14.41;66.52;94426.22;5064025;28;20023;-81
2022/10/25 07:01:45;;;;;;;33.58;11.32;;;;;;;14.50;66.31;94428.06;5063929;28;20024;-82
2022/10/25 07:04:11;;;;;;;62.63;11.65;;;;;;;14.51;65.31;94418.91;5063918;28;20031;-83
2022/10/25 07:06:36;;;;;;;62.03;11.75;;;;;;;14.57;65.09;94417.63;5063543;28;20099;-85
2022/10/25 07:09:03;;;;;;;66.63;12.63;;;;;;;14.58;64.91;94417.31;5046017;28;20107;-85
2022/10/25 07:11:31;;;;;;;54.17;11.73;;;;;;;14.61;64.26;94419.38;5063679;28;20040;-87
2022/10/25 07:13:58;;;;;;;43.60;11.73;;;;;;;14.63;64.93;94425.19;5063706;28;20020;-86
2022/10/25 07:16:25;;;;;;;44.75;11.38;;;;;;;14.72;65.62;94414.41;5045995;28;20025;-86
2022/10/25 07:18:50;;;;;;;38.28;11.30;;;;;;;14.74;64.87;94412.19;5063612;28;20055;-84
2022/10/25 07:21:20;;;;;;;57.25;11.80;;;;;;;14.80;64.07;94423.50;5063446;28;20029;-84
2022/10/25 07:23:47;;;;;;;45.17;12.13;;;;;;;14.80;62.77;94426.19;5063438;28;20020;-85
2022/10/25 07:26:24;;;;;;;38.25;13.10;;;;;;;14.84;62.67;94421.75;5063539;28;20021;-86
2022/10/25 07:28:52;;;;;;;93.53;25.55;;;;;;;14.94;62.40;94416.00;5063261;28;20021;-83
2022/10/25 07:31:20;;;;;;;60.58;19.65;;;;;;;15.00;62.17;94409.31;5063650;28;20021;-80
2022/10/25 07:33:46;;;;;;;68.70;20.55;;;;;;;15.12;62.26;94411.28;5064134;28;20031;-81
2022/10/25 07:36:12;;;;;;;44.13;18.05;;;;;;;15.22;61.63;94418.94;5062858;28;20107;-80
2022/10/25 07:38:37;;;;;;;62.38;14.02;;;;;;;15.32;61.09;94408.91;5063189;28;20274;-81
2022/10/25 07:41:03;;;;;;;45.30;13.90;;;;;;;15.38;61.03;94405.69;5063852;28;20151;-82
2022/10/25 07:43:29;;;;;;;42.55;12.73;;;;;;;15.47;61.11;94399.44;5063502;28;20099;-82
2022/10/25 07:45:54;;;;;;;60.13;12.25;;;;;;;15.57;61.06;94410.59;5063269;28;20046;-80
2022/10/25 07:48:21;;;;;;;43.10;12.35;;;;;;;15.65;60.23;94407.03;5062896;28;20048;-80
2022/10/25 07:50:46;;;;;;;37.28;10.35;;;;;;;15.71;60.25;94412.19;5045497;28;20037;-79
2022/10/25 07:53:12;;;;;;;39.05;12.63;;;;;;;15.79;60.11;94401.38;5062564;28;20025;-80
2022/10/25 07:55:37;;;;;;;57.92;11.38;;;;;;;15.90;59.53;94406.34;5062867;28;20083;-81
2022/10/25 07:58:05;;;;;;;65.45;11.73;;;;;;;15.99;59.30;94412.41;5062687;28;20064;-81
2022/10/25 08:00:31;;;;;;;55.25;11.27;;;;;;;16.08;58.75;94406.91;5062785;28;20029;-81
2022/10/25 08:02:56;;;;;;;48.25;10.50;;;;;;;16.15;58.81;94399.88;5063564;28;20036;-81
2022/10/25 08:05:22;;;;;;;49.55;12.88;;;;;;;16.19;58.68;94397.28;5064106;28;20021;-81
2022/10/25 08:07:50;;;;;;;38.58;10.98;;;;;;;16.28;58.61;94395.28;5063398;28;20322;-80
2022/10/25 08:10:19;;;;;;;43.05;11.18;;;;;;;16.29;58.23;94398.78;5063581;28;20024;-80
2022/10/25 08:12:45;;;;;;;49.22;11.80;;;;;;;16.36;58.53;94405.13;5063572;28;20025;-80
2022/10/25 08:15:11;;;;;;;48.70;10.57;;;;;;;16.43;58.08;94391.16;5062821;28;20258;-80
2022/10/25 08:17:36;;;;;;;56.15;12.15;;;;;;;16.50;57.75;94394.03;5063461;28;20089;-81
2022/10/25 08:20:02;;;;;;;44.53;9.65;;;;;;;16.56;56.52;94400.78;5062487;28;20021;-83
2022/10/25 08:22:28;;;;;;;45.42;11.52;;;;;;;16.64;56.88;94394.47;5062449;28;20048;-81
2022/10/25 08:24:53;;;;;;;45.75;10.00;;;;;;;16.73;56.57;94394.38;5066734;28;20024;-81
2022/10/25 08:27:19;;;;;;;39.78;11.23;;;;;;;16.77;55.96;94392.59;5067268;28;20188;-81
2022/10/25 08:29:44;;;;;;;51.42;10.18;;;;;;;16.83;56.20;94395.84;5066779;28;20039;-80
2022/10/25 08:32:09;;;;;;;31.80;8.60;;;;;;;16.90;55.66;94387.97;5049304;28;20323;-82
2022/10/25 08:34:35;;;;;;;40.17;8.73;;;;;;;17.01;55.13;94394.44;5066834;28;20271;-80
2022/10/25 08:37:01;;;;;;;46.33;11.55;;;;;;;17.11;54.77;94387.81;5066792;28;20214;-80
2022/10/25 08:39:26;;;;;;;40.70;10.07;;;;;;;17.19;53.82;94384.19;5067385;28;20032;-80
2022/10/25 08:41:56;;;;;;;38.80;8.18;;;;;;;17.31;53.33;94391.44;5067545;28;20029;-80
2022/10/25 08:44:31;;;;;;;39.10;8.80;;;;;;;17.38;52.63;94383.56;5067021;28;20021;-80
2022/10/25 08:47:05;;;;;;;47.42;9.93;;;;;;;17.45;51.74;94391.84;5067299;28;20183;-82
2022/10/25 08:49:49;;;;;;;38.03;7.82;;;;;;;17.50;52.30;94384.63;5066837;28;20025;-80
2022/10/25 08:52:37;;;;;;;49.83;7.75;;;;;;;17.58;51.38;94373.69;5065976;28;20044;-80
2022/10/25 08:55:08;;;;;;;41.47;8.40;;;;;;;17.64;52.46;94366.16;5065705;28;20041;-80
2022/10/25 08:57:38;;;;;;;43.20;8.80;;;;;;;17.75;52.02;94363.75;5066117;28;20048;-82
2022/10/25 09:00:10;;;;;;;33.33;8.23;;;;;;;17.81;51.74;94371.22;5048816;28;20229;-80
2022/10/25 09:02:52;;;;;;;40.67;7.30;;;;;;;17.96;50.95;94367.00;5066847;28;20059;-81
2022/10/25 09:05:37;;;;;;;;;;;;;;;18.03;50.39;94374.47;5066810;28;20020;-83
2022/10/25 09:08:30;;;;;;;39.05;7.80;;;;;;;18.07;49.28;94372.66;5066397;28;20140;-82
2022/10/25 09:11:22;;;;;;;32.13;7.28;;;;;;;18.13;49.88;94371.25;5065995;28;20017;-84
2022/10/25 09:14:01;;;;;;;26.48;6.65;;;;;;;18.19;49.27;94364.47;5066356;28;20024;-83
2022/10/25 09:16:47;;;;;;;37.45;7.40;;;;;;;18.30;49.34;94358.56;5066365;28;20068;-82
2022/10/25 09:19:22;;;;;;;40.70;8.43;;;;;;;18.40;49.60;94361.53;5066601;28;20028;-83
2022/10/25 09:21:59;;;;;;;49.03;9.57;;;;;;;18.45;49.19;94360.47;5065548;28;20069;-83
2022/10/25 09:24:27;;;;;;;36.83;8.02;;;;;;;18.55;48.78;94348.34;5065301;28;20020;-82
2022/10/25 09:27:05;;;;;;;29.15;6.82;;;;;;;18.68;48.38;94359.81;5066156;28;20024;-81
2022/10/25 09:29:36;;;;;;;29.83;7.40;;;;;;;18.78;48.64;94357.34;5065375;28;20024;-80
2022/10/25 09:32:11;;;;;;;35.47;7.82;;;;;;;18.88;47.82;94371.47;5065576;28;20017;-81
2022/10/25 09:34:36;;;;;;;37.92;7.13;;;;;;;19.03;47.35;94365.22;5063983;28;20021;-80
2022/10/25 09:37:10;;;;;;;31.25;7.45;;;;;;;19.14;47.06;94351.94;5065606;28;20047;-80
2022/10/25 09:39:41;;;;;;;44.92;7.63;;;;;;;19.19;47.08;94365.16;5065727;28;20092;-82
2022/10/25 09:42:25;;;;;;;36.72;6.60;;;;;;;19.29;46.87;94353.78;5066367;28;20040;-81
2022/10/25 09:45:03;;;;;;;40.67;8.57;;;;;;;19.41;46.87;94355.56;5065015;28;20060;-81
2022/10/25 09:47:31;;;;;;;43.30;8.98;;;;;;;19.51;47.00;94348.81;5065124;28;20223;-80
2022/10/25 09:50:02;;;;;;;37.45;9.70;;;;;;;19.56;46.50;94335.78;5065006;28;20223;-82
2022/10/25 09:52:59;;;;;;;31.63;8.80;;;;;;;19.65;46.63;94333.63;5065193;28;20092;-79
2022/10/25 09:55:33;;;;;;;34.40;9.13;;;;;;;19.74;47.09;94332.63;5065120;28;20063;-78
2022/10/25 09:58:00;;;;;;;31.90;8.50;;;;;;;19.81;46.23;94325.44;5064884;28;20033;-80
2022/10/25 10:00:26;;;;;;;42.97;8.75;;;;;;;19.92;47.11;94319.41;5064422;28;20062;-80
2022/10/25 10:02:51;;;;;;;28.15;8.68;;;;;;;19.95;45.96;94324.88;5064664;28;20184;-80
2022/10/25 10:05:19;;;;;;;39.72;9.50;;;;;;;19.96;45.53;94320.25;5065219;28;20020;-83
2022/10/25 10:07:46;;;;;;;35.72;9.85;;;;;;;20.02;45.02;94319.59;5064795;28;20027;-82
2022/10/25 10:10:26;;;;;;;46.78;11.02;;;;;;;20.02;44.87;94322.28;5064525;28;20040;-83
2022/10/25 10:13:00;;;;;;;42.60;9.65;;;;;;;20.11;45.20;94311.25;5064247;28;20032;-82
2022/10/25 10:15:53;;;;;;;40.10;9.23;;;;;;;20.22;45.15;94309.47;5064537;28;20017;-81
2022/10/25 10:18:20;;;;;;;32.50;8.40;;;;;;;20.24;45.02;94309.88;5063590;28;20017;-82
2022/10/25 10:20:57;;;;;;;43.75;10.30;;;;;;;20.29;44.85;94308.00;5063823;28;20033;-82
2022/10/25 10:23:25;;;;;;;36.22;8.75;;;;;;;20.34;43.92;94302.31;5064425;28;20025;-82
2022/10/25 10:25:51;;;;;;;31.50;9.05;;;;;;;20.42;43.11;94293.13;5064404;28;20239;-82
2022/10/25 10:28:17;;;;;;;32.45;8.48;;;;;;;20.45;42.70;94297.81;5065679;28;20295;-77
2022/10/25 10:30:52;;;;;;;35.70;7.50;;;;;;;20.49;43.41;94293.22;5065402;28;20096;-78
2022/10/25 10:33:18;;;;;;;36.95;8.73;;;;;;;20.55;43.37;94288.28;5063513;28;20017;-78
2022/10/25 10:35:43;;;;;;;37.08;9.07;;;;;;;20.57;43.57;94286.75;5063224;28;20120;-79
2022/10/25 10:38:13;;;;;;;26.42;7.82;;;;;;;20.63;43.16;94284.56;5064342;28;20307;-78
2022/10/25 10:40:39;;;;;;;35.90;10.48;;;;;;;20.67;43.09;94279.97;5063818;28;20200;-79
2022/10/25 10:43:27;;;;;;;31.63;8.23;;;;;;;20.76;41.87;94268.84;5063838;28;20031;-78
2022/10/25 10:46:01;;;;;;;35.75;9.63;;;;;;;20.80;42.35;94265.06;5045649;28;20067;-78
2022/10/25 10:48:32;;;;;;;40.95;8.75;;;;;;;20.90;41.55;94263.59;5062175;28;20319;-78
2022/10/25 10:50:58;;;;;;;27.77;8.25;;;;;;;20.92;41.10;94255.88;5061967;28;20094;-78
2022/10/25 10:53:28;;;;;;;37.25;8.63;;;;;;;21.00;41.51;94259.47;5062004;28;20029;-79
2022/10/25 10:55:59;;;;;;;40.45;12.65;;;;;;;21.07;42.19;94248.72;5062002;28;20024;-79
2022/10/25 10:58:31;;;;;;;35.47;11.43;;;;;;;21.14;42.88;94256.91;5061720;28;20166;-78
2022/10/25 11:01:06;;;;;;;29.88;8.20;;;;;;;21.24;42.01;94258.97;5043691;28;20057;-78
2022/10/25 11:03:40;;;;;;;31.63;9.07;;;;;;;21.30;40.45;94253.22;5062743;28;20092;-78
2022/10/25 11:06:09;;;;;;;30.98;8.23;;;;;;;21.30;39.66;94245.88;5063233;28;20020;-78
2022/10/25 11:08:34;;;;;;;27.92;8.07;;;;;;;21.37;39.83;94245.94;5063170;28;20021;-78
2022/10/25 11:11:13;;;;;;;39.30;8.35;;;;;;;21.48;39.42;94237.94;5063568;28;20188;-77
2022/10/25 11:13:45;;;;;;;32.92;7.22;;;;;;;21.57;40.55;94240.34;5063474;28;20016;-78
2022/10/25 11:16:25;;;;;;;39.45;8.82;;;;;;;21.67;40.01;94238.88;5063880;28;20035;-78
2022/10/25 11:18:59;;;;;;;38.05;8.75;;;;;;;21.72;38.26;94249.41;5063490;28;20040;-78
2022/10/25 11:21:27;;;;;;;29.77;6.93;;;;;;;21.75;37.51;94238.56;5063863;28;20246;-78
2022/10/25 11:24:07;;;;;;;30.02;7.43;;;;;;;21.82;38.41;94235.91;5063641;28;20267;-77
2022/10/25 11:26:54;;;;;;;27.40;7.57;;;;;;;21.92;37.85;94237.16;5063843;28;20166;-77
2022/10/25 11:29:30;;;;;;;30.08;8.02;;;;;;;22.04;38.93;94236.88;5062991;28;20059;-77
2022/10/25 11:32:15;;;;;;;34.50;7.78;;;;;;;21.96;37.14;94224.41;5063508;28;20088;-77
2022/10/25 11:34:58;;;;;;;26.08;7.78;;;;;;;22.09;37.65;94222.16;5064211;28;20021;-77